Time;durP1;ratioP1;P1;durP2;ratioP2;P2;SDS_P1;SDS_P2;PMS_P1;PMS_P2;Temp;Humidity;BMP_temperature;BMP_pressure;BME280_temperature;BME280_humidity;BME280_pressure;Samples;Min_cycle;Max_cycle;Signal;HPM_P1;HPM_P2
2022/04/14 00:00:12;;;;;;;2.67;2.47;;;;;;;;;;5093869;28;20197;-85
2022/04/14 00:02:41;;;;;;;2.50;2.30;;;;;;;;;;5094083;28;20219;-86
2022/04/14 00:05:09;;;;;;;3.07;2.60;;;;;;;;;;5093987;28;20254;-86
2022/04/14 00:07:37;;;;;;;4.10;2.70;;;;;;;;;;5093800;28;20193;-85
2022/04/14 00:10:05;;;;;;;2.73;2.53;;;;;;;;;;5093577;28;20200;-86
2022/04/14 00:12:32;;;;;;;6.30;4.20;;;;;;;;;;5094003;28;20204;-85
2022/04/14 00:15:00;;;;;;;3.00;2.70;;;;;;;;;;5093685;28;20622;-85
2022/04/14 00:17:29;;;;;;;5.50;3.10;;;;;;;;;;5093271;28;20192;-86
2022/04/14 00:19:57;;;;;;;2.80;2.60;;;;;;;;;;5093703;28;20196;-85
2022/04/14 00:22:25;;;;;;;3.03;2.73;;;;;;;;;;5093695;28;20274;-86
2022/04/14 00:24:52;;;;;;;4.83;2.83;;;;;;;;;;5093063;28;20200;-86
2022/04/14 00:27:19;;;;;;;2.77;2.50;;;;;;;;;;5093251;28;20192;-86
2022/04/14 00:29:48;;;;;;;2.93;2.47;;;;;;;;;;5093116;28;20253;-85
2022/04/14 00:32:15;;;;;;;3.33;2.60;;;;;;;;;;5093381;28;20246;-86
2022/04/14 00:34:42;;;;;;;3.00;2.77;;;;;;;;;;5093112;28;20197;-86
2022/04/14 00:37:11;;;;;;;2.60;2.10;;;;;;;;;;5092785;28;20227;-85
2022/04/14 00:39:39;;;;;;;2.90;2.60;;;;;;;;;;5093134;28;20291;-85
2022/04/14 00:42:10;;;;;;;4.77;3.23;;;;;;;;;;5093302;28;20289;-87
2022/04/14 00:44:37;;;;;;;4.00;2.50;;;;;;;;;;5092828;28;20188;-85
2022/04/14 00:47:06;;;;;;;3.83;2.70;;;;;;;;;;5093246;28;20317;-86
2022/04/14 00:49:33;;;;;;;3.20;2.90;;;;;;;;;;5092693;28;20291;-86
2022/04/14 00:52:01;;;;;;;3.30;3.00;;;;;;;;;;5092814;28;20737;-86
2022/04/14 00:54:31;;;;;;;2.93;2.67;;;;;;;;;;5092790;28;20247;-86
2022/04/14 00:56:58;;;;;;;6.97;3.03;;;;;;;;;;5092626;28;20206;-86
2022/04/14 00:59:25;;;;;;;3.67;3.27;;;;;;;;;;5093041;28;20577;-85
2022/04/14 01:01:53;;;;;;;5.60;3.50;;;;;;;;;;5092474;28;20224;-85
2022/04/14 01:04:21;;;;;;;4.40;3.03;;;;;;;;;;5092406;28;20283;-86
2022/04/14 01:06:48;;;;;;;3.30;3.00;;;;;;;;;;5093019;28;20192;-85
2022/04/14 01:09:19;;;;;;;3.53;2.83;;;;;;;;;;5092506;28;20223;-86
2022/04/14 01:11:48;;;;;;;2.70;2.50;;;;;;;;;;5092834;28;20595;-84
2022/04/14 01:14:31;;;;;;;3.80;3.07;;;;;;;;;;5092361;28;20196;-85
2022/04/14 01:16:59;;;;;;;3.07;2.70;;;;;;;;;;5090902;28;20200;-85
2022/04/14 01:19:27;;;;;;;3.00;2.70;;;;;;;;;;5092597;28;20238;-85
2022/04/14 01:21:58;;;;;;;4.23;3.20;;;;;;;;;;5092583;28;20220;-85
2022/04/14 01:24:27;;;;;;;4.77;2.80;;;;;;;;;;5092207;28;20241;-85
2022/04/14 01:26:55;;;;;;;5.97;4.37;;;;;;;;;;5092147;28;20204;-85
2022/04/14 01:29:23;;;;;;;4.83;3.57;;;;;;;;;;5092642;28;20250;-85
2022/04/14 01:31:51;;;;;;;2.67;2.43;;;;;;;;;;5092180;28;20243;-83
2022/04/14 01:34:18;;;;;;;2.87;2.63;;;;;;;;;;5091894;28;20253;-84
2022/04/14 01:36:46;;;;;;;3.13;2.83;;;;;;;;;;5091839;28;20285;-84
2022/04/14 01:39:14;;;;;;;3.67;3.37;;;;;;;;;;5091723;28;20202;-83
2022/04/14 01:41:44;;;;;;;4.77;4.33;;;;;;;;;;5091967;28;20192;-83
2022/04/14 01:44:11;;;;;;;3.37;2.93;;;;;;;;;;5091924;28;20201;-82
2022/04/14 01:46:41;;;;;;;3.70;2.90;;;;;;;;;;5092063;28;20197;-83
2022/04/14 01:49:09;;;;;;;4.40;3.20;;;;;;;;;;5091868;28;20224;-83
2022/04/14 01:51:36;;;;;;;6.70;3.03;;;;;;;;;;5092150;28;20204;-83
2022/04/14 01:54:04;;;;;;;3.10;2.77;;;;;;;;;;5091626;28;20290;-81
2022/04/14 01:56:31;;;;;;;2.80;2.57;;;;;;;;;;5091832;28;20192;-82
2022/04/14 01:59:00;;;;;;;4.30;2.60;;;;;;;;;;5091757;28;20287;-82
2022/04/14 02:01:28;;;;;;;2.87;2.60;;;;;;;;;;5091610;28;20254;-81
2022/04/14 02:03:57;;;;;;;3.00;2.70;;;;;;;;;;5091656;28;20633;-82
2022/04/14 02:06:24;;;;;;;3.47;2.60;;;;;;;;;;5091798;28;20200;-81
2022/04/14 02:08:51;;;;;;;5.17;2.77;;;;;;;;;;5091708;28;20245;-81
2022/04/14 02:11:18;;;;;;;4.00;3.23;;;;;;;;;;5091559;28;20204;-80
2022/04/14 02:13:46;;;;;;;2.57;2.37;;;;;;;;;;5091728;28;20200;-80
2022/04/14 02:16:15;;;;;;;4.20;2.83;;;;;;;;;;5091656;28;20196;-80
2022/04/14 02:18:42;;;;;;;5.00;2.60;;;;;;;;;;5092059;28;20643;-80
2022/04/14 02:21:09;;;;;;;3.10;2.80;;;;;;;;;;5091322;28;20719;-80
2022/04/14 02:23:37;;;;;;;4.07;3.13;;;;;;;;;;5091685;28;20398;-80
2022/04/14 02:26:04;;;;;;;5.20;2.57;;;;;;;;;;5091494;28;20283;-80
2022/04/14 02:28:31;;;;;;;4.53;2.83;;;;;;;;;;5091959;28;20218;-81
2022/04/14 02:30:59;;;;;;;3.03;2.83;;;;;;;;;;5091392;28;20710;-80
2022/04/14 02:33:27;;;;;;;3.03;2.73;;;;;;;;;;5091487;28;20242;-81
2022/04/14 02:35:55;;;;;;;2.90;2.50;;;;;;;;;;5091327;28;20196;-81
2022/04/14 02:38:22;;;;;;;2.80;2.60;;;;;;;;;;5091680;28;20206;-82
2022/04/14 02:40:49;;;;;;;2.30;2.13;;;;;;;;;;5091241;28;20716;-81
2022/04/14 02:43:16;;;;;;;2.67;2.47;;;;;;;;;;5091326;28;20227;-81
2022/04/14 02:45:43;;;;;;;3.43;3.03;;;;;;;;;;5091475;28;20197;-81
2022/04/14 02:48:11;;;;;;;2.93;2.70;;;;;;;;;;5091502;28;20203;-81
2022/04/14 02:50:43;;;;;;;3.50;3.07;;;;;;;;;;5091459;28;20206;-81
2022/04/14 02:53:10;;;;;;;4.60;3.43;;;;;;;;;;5095364;28;20216;-82
2022/04/14 02:55:37;;;;;;;3.57;3.27;;;;;;;;;;5094990;28;20204;-80
2022/04/14 02:58:05;;;;;;;3.27;3.03;;;;;;;;;;5092317;28;20234;-80
2022/04/14 03:00:32;;;;;;;3.17;2.70;;;;;;;;;;5094505;28;20242;-80
2022/04/14 03:03:00;;;;;;;2.90;2.60;;;;;;;;;;5094949;28;20231;-80
2022/04/14 03:05:27;;;;;;;4.83;2.73;;;;;;;;;;5094501;28;20193;-80
2022/04/14 03:07:56;;;;;;;3.37;2.93;;;;;;;;;;5092495;28;20729;-81
2022/04/14 03:10:23;;;;;;;3.87;3.30;;;;;;;;;;5091448;28;20259;-80
2022/04/14 03:12:51;;;;;;;3.20;2.90;;;;;;;;;;5093101;28;20230;-80
2022/04/14 03:15:19;;;;;;;3.40;2.83;;;;;;;;;;5090931;28;20196;-80
2022/04/14 03:17:49;;;;;;;3.23;2.93;;;;;;;;;;5093569;28;20561;-81
2022/04/14 03:20:16;;;;;;;3.43;3.13;;;;;;;;;;5090798;28;20196;-80
2022/04/14 03:22:43;;;;;;;3.40;3.10;;;;;;;;;;5093065;28;20704;-80
2022/04/14 03:25:14;;;;;;;4.00;3.63;;;;;;;;;;5090978;28;20291;-80
2022/04/14 03:27:42;;;;;;;4.00;3.60;;;;;;;;;;5093050;28;20196;-80
2022/04/14 03:30:11;;;;;;;5.17;3.77;;;;;;;;;;5092661;28;20207;-81
2022/04/14 03:32:42;;;;;;;6.50;4.23;;;;;;;;;;5090830;28;20619;-80
2022/04/14 03:35:11;;;;;;;5.83;4.17;;;;;;;;;;5083772;28;20571;-81
2022/04/14 03:37:38;;;;;;;4.70;3.53;;;;;;;;;;5091604;28;20289;-81
2022/04/14 03:40:07;;;;;;;4.43;3.17;;;;;;;;;;5088193;28;20587;-80
2022/04/14 03:42:36;;;;;;;3.50;3.20;;;;;;;;;;5074011;28;20221;-80
2022/04/14 03:45:04;;;;;;;3.90;3.30;;;;;;;;;;5073592;28;20201;-80
2022/04/14 03:47:31;;;;;;;3.30;3.00;;;;;;;;;;5091311;28;20212;-80
2022/04/14 03:49:58;;;;;;;4.20;3.00;;;;;;;;;;5093814;28;20203;-80
2022/04/14 03:52:25;;;;;;;6.63;3.10;;;;;;;;;;5090907;28;20198;-82
2022/04/14 03:54:52;;;;;;;6.97;6.37;;;;;;;;;;5073431;28;20201;-81
2022/04/14 03:57:20;;;;;;;7.87;7.17;;;;;;;;;;5084440;28;20820;-80
2022/04/14 03:59:48;;;;;;;4.27;3.87;;;;;;;;;;5093665;28;20279;-81
2022/04/14 04:02:15;;;;;;;4.07;3.67;;;;;;;;;;5079726;28;20208;-81
2022/04/14 04:04:43;;;;;;;10.57;9.57;;;;;;;;;;5072721;28;20225;-80
2022/04/14 04:07:10;;;;;;;11.80;10.50;;;;;;;;;;5073260;28;20734;-81
2022/04/14 04:09:38;;;;;;;6.73;4.10;;;;;;;;;;5075350;28;20201;-81
2022/04/14 04:12:07;;;;;;;6.17;4.23;;;;;;;;;;5073219;28;20197;-81
2022/04/14 04:14:34;;;;;;;19.13;13.30;;;;;;;;;;5073049;28;20205;-81
2022/04/14 04:17:04;;;;;;;5.50;4.83;;;;;;;;;;5072992;28;20197;-82
2022/04/14 04:19:32;;;;;;;4.77;4.37;;;;;;;;;;5073070;28;20216;-81
2022/04/14 04:21:59;;;;;;;5.33;4.60;;;;;;;;;;5073152;28;20197;-81
2022/04/14 04:24:26;;;;;;;5.50;4.00;;;;;;;;;;5072835;28;20723;-81
2022/04/14 04:26:54;;;;;;;3.67;3.37;;;;;;;;;;5072761;28;20288;-81
2022/04/14 04:29:21;;;;;;;6.43;4.53;;;;;;;;;;5072866;28;20201;-82
2022/04/14 04:31:48;;;;;;;5.47;3.53;;;;;;;;;;5086812;28;20204;-81
2022/04/14 04:34:18;;;;;;;4.60;3.20;;;;;;;;;;5093183;28;20580;-81
2022/04/14 04:36:45;;;;;;;3.57;3.23;;;;;;;;;;5092735;28;20236;-82
2022/04/14 04:39:12;;;;;;;5.93;4.23;;;;;;;;;;5093173;28;20275;-83
2022/04/14 04:41:40;;;;;;;4.87;3.57;;;;;;;;;;5093341;28;20188;-82
2022/04/14 04:44:07;;;;;;;3.53;3.23;;;;;;;;;;5092555;28;20223;-81
2022/04/14 04:46:34;;;;;;;4.23;3.83;;;;;;;;;;5092886;28;20204;-82
2022/04/14 04:49:01;;;;;;;4.17;3.77;;;;;;;;;;5092773;28;20200;-81
2022/04/14 04:51:30;;;;;;;3.60;3.30;;;;;;;;;;5092869;28;20287;-81
2022/04/14 04:53:57;;;;;;;3.70;3.37;;;;;;;;;;5092725;28;20193;-82
2022/04/14 04:56:25;;;;;;;8.97;3.43;;;;;;;;;;5092558;28;20202;-82
2022/04/14 04:58:52;;;;;;;5.03;3.83;;;;;;;;;;5092117;28;20239;-82
2022/04/14 05:01:19;;;;;;;4.07;3.70;;;;;;;;;;5091997;28;20197;-82
2022/04/14 05:03:46;;;;;;;5.10;4.60;;;;;;;;;;5092451;28;20227;-82
2022/04/14 05:06:14;;;;;;;6.87;5.67;;;;;;;;;;5092711;28;20634;-82
2022/04/14 05:08:42;;;;;;;6.13;4.53;;;;;;;;;;5092519;28;20715;-82
2022/04/14 05:11:10;;;;;;;7.13;6.07;;;;;;;;;;5092497;28;20787;-82
2022/04/14 05:13:37;;;;;;;9.77;8.77;;;;;;;;;;5092486;28;20207;-82
2022/04/14 05:16:07;;;;;;;31.30;20.20;;;;;;;;;;5091343;28;20196;-83
2022/04/14 05:18:34;;;;;;;21.10;13.53;;;;;;;;;;5092624;28;20203;-83
2022/04/14 05:21:01;;;;;;;10.93;7.07;;;;;;;;;;5092671;28;20203;-83
2022/04/14 05:23:28;;;;;;;8.23;6.80;;;;;;;;;;5092305;28;20224;-83
2022/04/14 05:25:57;;;;;;;8.10;5.27;;;;;;;;;;5092209;28;20199;-84
2022/04/14 05:28:25;;;;;;;5.00;4.17;;;;;;;;;;5092137;28;20660;-83
2022/04/14 05:30:53;;;;;;;6.03;3.63;;;;;;;;;;5092316;28;20200;-83
2022/04/14 05:33:20;;;;;;;4.97;4.57;;;;;;;;;;5092544;28;20626;-84
2022/04/14 05:35:47;;;;;;;3.67;3.37;;;;;;;;;;5092260;28;20203;-84
2022/04/14 05:38:14;;;;;;;5.13;3.20;;;;;;;;;;5092202;28;20274;-84
2022/04/14 05:40:43;;;;;;;9.53;4.20;;;;;;;;;;5091926;28;20216;-84
2022/04/14 05:43:17;;;;;;;9.90;3.40;;;;;;;;;;5092116;28;20216;-84
2022/04/14 05:45:47;;;;;;;5.93;2.87;;;;;;;;;;5091965;28;20656;-84
2022/04/14 05:48:15;;;;;;;4.90;2.90;;;;;;;;;;5092697;28;20192;-84
2022/04/14 05:50:42;;;;;;;4.40;3.07;;;;;;;;;;5092096;28;20204;-84
2022/04/14 05:53:10;;;;;;;5.37;3.30;;;;;;;;;;5092071;28;20203;-84
2022/04/14 05:55:37;;;;;;;7.23;3.70;;;;;;;;;;5091857;28;20200;-83
2022/04/14 05:58:05;;;;;;;3.57;3.00;;;;;;;;;;5092036;28;20193;-83
2022/04/14 06:00:35;;;;;;;3.47;2.90;;;;;;;;;;5092055;28;20204;-84
2022/04/14 06:03:02;;;;;;;5.13;3.47;;;;;;;;;;5092122;28;20298;-84
2022/04/14 06:05:29;;;;;;;6.97;3.33;;;;;;;;;;5091782;28;20287;-84
2022/04/14 06:07:57;;;;;;;7.50;3.37;;;;;;;;;;5092377;28;20200;-84
2022/04/14 06:10:25;;;;;;;3.53;3.03;;;;;;;;;;5091607;28;20192;-84
2022/04/14 06:12:54;;;;;;;5.33;3.03;;;;;;;;;;5092043;28;20636;-84
2022/04/14 06:15:21;;;;;;;3.73;3.33;;;;;;;;;;5091655;28;20192;-84
2022/04/14 06:17:50;;;;;;;5.73;2.87;;;;;;;;;;5091790;28;20291;-84
2022/04/14 06:20:18;;;;;;;7.37;3.20;;;;;;;;;;5091414;28;20197;-84
2022/04/14 06:22:45;;;;;;;5.23;3.30;;;;;;;;;;5091755;28;20687;-84
2022/04/14 06:25:16;;;;;;;3.30;2.97;;;;;;;;;;5091491;28;20224;-84
2022/04/14 06:27:44;;;;;;;2.87;2.67;;;;;;;;;;5095362;28;20220;-84
2022/04/14 06:30:12;;;;;;;5.53;2.67;;;;;;;;;;5095330;28;20286;-85
2022/04/14 06:32:40;;;;;;;2.90;2.50;;;;;;;;;;5095589;28;20230;-84
2022/04/14 06:35:12;;;;;;;5.60;2.33;;;;;;;;;;5095404;28;20196;-84
2022/04/14 06:37:39;;;;;;;3.17;2.60;;;;;;;;;;5095242;28;20231;-84
2022/04/14 06:40:08;;;;;;;3.53;2.43;;;;;;;;;;5095454;28;20597;-84
2022/04/14 06:42:35;;;;;;;3.97;2.73;;;;;;;;;;5095435;28;20668;-84
2022/04/14 06:45:03;;;;;;;47.57;23.27;;;;;;;;;;5095086;28;20783;-84
2022/04/14 06:47:30;;;;;;;8.87;3.90;;;;;;;;;;5095315;28;20192;-85
2022/04/14 06:49:57;;;;;;;10.70;5.80;;;;;;;;;;5094893;28;20294;-85
2022/04/14 06:52:26;;;;;;;5.73;5.17;;;;;;;;;;5095592;28;20215;-84
2022/04/14 06:54:53;;;;;;;5.57;4.57;;;;;;;;;;5094937;28;20687;-84
2022/04/14 06:57:20;;;;;;;6.27;5.17;;;;;;;;;;5095469;28;20581;-84
2022/04/14 06:59:48;;;;;;;6.83;3.57;;;;;;;;;;5094749;28;20665;-84
2022/04/14 07:02:15;;;;;;;7.37;5.50;;;;;;;;;;5095066;28;20287;-85
2022/04/14 07:04:42;;;;;;;4.73;3.03;;;;;;;;;;5094935;28;20248;-84
2022/04/14 07:07:10;;;;;;;11.30;8.30;;;;;;;;;;5095001;28;20699;-84
2022/04/14 07:09:38;;;;;;;6.53;3.77;;;;;;;;;;5094593;28;20197;-85
2022/04/14 07:12:06;;;;;;;8.73;3.13;;;;;;;;;;5095436;28;20295;-85
2022/04/14 07:14:34;;;;;;;6.37;4.77;;;;;;;;;;5094598;28;20188;-84
2022/04/14 07:17:01;;;;;;;7.77;6.63;;;;;;;;;;5094828;28;20281;-84
2022/04/14 07:19:29;;;;;;;7.73;5.30;;;;;;;;;;5094300;28;20294;-85
2022/04/14 07:21:56;;;;;;;3.30;3.00;;;;;;;;;;5094599;28;20207;-84
2022/04/14 07:24:23;;;;;;;7.87;6.77;;;;;;;;;;5094461;28;20230;-84
2022/04/14 07:26:52;;;;;;;7.00;4.97;;;;;;;;;;5094620;28;20200;-85
2022/04/14 07:29:19;;;;;;;4.47;3.47;;;;;;;;;;5094234;28;20206;-85
2022/04/14 07:31:47;;;;;;;4.77;3.40;;;;;;;;;;5094525;28;20196;-85
2022/04/14 07:34:15;;;;;;;3.13;2.87;;;;;;;;;;5094597;28;20575;-85
2022/04/14 07:36:42;;;;;;;3.27;2.87;;;;;;;;;;5094247;28;20232;-85
2022/04/14 07:39:10;;;;;;;4.40;2.77;;;;;;;;;;5092965;28;20239;-85
2022/04/14 07:41:37;;;;;;;2.77;2.57;;;;;;;;;;5094610;28;20247;-85
2022/04/14 07:44:06;;;;;;;2.73;2.53;;;;;;;;;;5094081;28;20228;-85
2022/04/14 07:46:35;;;;;;;9.77;4.70;;;;;;;;;;5094239;28;20203;-85
2022/04/14 07:49:03;;;;;;;4.03;3.07;;;;;;;;;;5093860;28;20200;-84
2022/04/14 07:51:30;;;;;;;10.83;5.37;;;;;;;;;;5094115;28;20278;-84
2022/04/14 07:53:57;;;;;;;2.70;2.50;;;;;;;;;;5093939;28;20668;-85
2022/04/14 07:56:24;;;;;;;3.77;2.80;;;;;;;;;;5093967;28;20207;-85
2022/04/14 07:58:52;;;;;;;17.53;11.17;;;;;;;;;;5093682;28;20283;-84
2022/04/14 08:01:21;;;;;;;52.33;33.33;;;;;;;;;;5094238;28;20276;-85
2022/04/14 08:03:48;;;;;;;20.50;12.73;;;;;;;;;;5093919;28;20197;-84
2022/04/14 08:06:15;;;;;;;13.97;7.53;;;;;;;;;;5094100;28;20593;-85
2022/04/14 08:08:43;;;;;;;17.00;8.30;;;;;;;;;;5094079;28;20201;-85
2022/04/14 08:11:11;;;;;;;6.33;5.23;;;;;;;;;;5093587;28;20252;-85
2022/04/14 08:13:40;;;;;;;5.00;4.53;;;;;;;;;;5093662;28;20196;-84
2022/04/14 08:16:09;;;;;;;5.27;4.00;;;;;;;;;;5093515;28;20192;-85
2022/04/14 08:18:38;;;;;;;6.60;4.80;;;;;;;;;;5093939;28;20201;-85
2022/04/14 08:21:06;;;;;;;8.17;4.17;;;;;;;;;;5093193;28;20192;-85
2022/04/14 08:23:38;;;;;;;6.53;5.13;;;;;;;;;;5093498;28;20274;-85
2022/04/14 08:26:08;;;;;;;5.90;5.07;;;;;;;;;;5093394;28;20192;-85
2022/04/14 08:28:40;;;;;;;12.47;4.83;;;;;;;;;;5093150;28;20232;-85
2022/04/14 08:31:09;;;;;;;8.30;4.43;;;;;;;;;;5093391;28;20275;-85
2022/04/14 08:33:38;;;;;;;6.10;4.37;;;;;;;;;;5093239;28;20200;-84
2022/04/14 08:36:08;;;;;;;7.97;4.47;;;;;;;;;;5093159;28;20188;-85
2022/04/14 08:38:35;;;;;;;4.87;3.93;;;;;;;;;;5093163;28;20184;-85
2022/04/14 08:41:05;;;;;;;5.87;4.17;;;;;;;;;;5092957;28;20203;-85
2022/04/14 08:43:34;;;;;;;5.97;4.33;;;;;;;;;;5093095;28;20228;-85
2022/04/14 08:46:03;;;;;;;5.40;4.00;;;;;;;;;;5092843;28;20220;-85
2022/04/14 08:48:30;;;;;;;6.03;4.03;;;;;;;;;;5092832;28;20229;-85
2022/04/14 08:51:00;;;;;;;7.80;3.77;;;;;;;;;;5093011;28;20200;-85
2022/04/14 08:53:28;;;;;;;8.07;4.53;;;;;;;;;;5092938;28;20200;-84
2022/04/14 08:55:56;;;;;;;3.87;3.03;;;;;;;;;;5092790;28;20682;-85
2022/04/14 08:58:26;;;;;;;4.90;4.40;;;;;;;;;;5092908;28;20661;-84
2022/04/14 09:00:55;;;;;;;4.00;3.60;;;;;;;;;;5092448;28;20195;-84
2022/04/14 09:03:25;;;;;;;5.57;4.10;;;;;;;;;;5093021;28;20617;-85
2022/04/14 09:05:52;;;;;;;3.63;3.03;;;;;;;;;;5092471;28;20310;-85
2022/04/14 09:08:22;;;;;;;3.17;2.87;;;;;;;;;;5092779;28;20197;-85
2022/04/14 09:10:50;;;;;;;4.63;4.20;;;;;;;;;;5092414;28;20279;-85
2022/04/14 09:13:18;;;;;;;3.60;3.27;;;;;;;;;;5092979;28;20626;-85
2022/04/14 09:15:45;;;;;;;4.10;3.70;;;;;;;;;;5092320;28;20287;-85
2022/04/14 09:18:13;;;;;;;5.53;3.50;;;;;;;;;;5092385;28;20246;-85
2022/04/14 09:20:42;;;;;;;3.63;2.63;;;;;;;;;;5092285;28;20291;-85
2022/04/14 09:23:18;;;;;;;8.43;3.90;;;;;;;;;;5092924;28;20617;-85
2022/04/14 09:25:48;;;;;;;3.50;2.93;;;;;;;;;;5092250;28;20299;-85
2022/04/14 09:28:18;;;;;;;3.80;3.10;;;;;;;;;;5092370;28;20748;-85
2022/04/14 09:31:02;;;;;;;4.63;3.70;;;;;;;;;;5092064;28;20289;-85
2022/04/14 09:33:30;;;;;;;4.97;4.47;;;;;;;;;;5092299;28;20193;-84
2022/04/14 09:36:08;;;;;;;9.17;4.87;;;;;;;;;;5092278;28;20631;-85
2022/04/14 09:38:56;;;;;;;4.97;4.23;;;;;;;;;;5092344;28;20181;-85
2022/04/14 09:41:37;;;;;;;7.10;5.50;;;;;;;;;;5092193;28;20668;-85
2022/04/14 09:44:09;;;;;;;6.97;4.03;;;;;;;;;;5091989;28;20197;-85
2022/04/14 09:46:37;;;;;;;7.83;5.40;;;;;;;;;;5092196;28;20186;-85
2022/04/14 09:49:09;;;;;;;17.23;6.13;;;;;;;;;;5092019;28;20654;-84
2022/04/14 09:51:38;;;;;;;7.23;5.20;;;;;;;;;;5092019;28;20204;-85
2022/04/14 09:54:06;;;;;;;7.43;5.10;;;;;;;;;;5091809;28;20568;-83
2022/04/14 09:56:43;;;;;;;6.57;4.50;;;;;;;;;;5091887;28;20238;-84
2022/04/14 09:59:12;;;;;;;8.03;5.20;;;;;;;;;;5091976;28;20196;-85
2022/04/14 10:01:39;;;;;;;4.93;4.40;;;;;;;;;;5094306;28;20554;-85
2022/04/14 10:04:07;;;;;;;4.33;3.17;;;;;;;;;;5095984;28;20261;-85
2022/04/14 10:06:35;;;;;;;18.40;12.37;;;;;;;;;;5095878;28;20226;-85
2022/04/14 10:09:02;;;;;;;28.43;18.17;;;;;;;;;;5095890;28;20209;-84
2022/04/14 10:11:30;;;;;;;17.13;12.27;;;;;;;;;;5096009;28;20211;-85
2022/04/14 10:14:12;;;;;;;8.60;7.70;;;;;;;;;;5095958;28;20243;-85
2022/04/14 10:16:39;;;;;;;8.07;7.03;;;;;;;;;;5096277;28;20337;-85
2022/04/14 10:19:08;;;;;;;12.53;9.60;;;;;;;;;;5095744;28;20206;-84
2022/04/14 10:21:36;;;;;;;11.77;10.57;;;;;;;;;;5096202;28;20200;-85
2022/04/14 10:24:05;;;;;;;5.63;5.13;;;;;;;;;;5095826;28;20714;-85
2022/04/14 10:26:35;;;;;;;4.50;3.37;;;;;;;;;;5095974;28;20400;-85
2022/04/14 10:29:03;;;;;;;4.83;3.60;;;;;;;;;;5095753;28;20236;-85
2022/04/14 10:31:33;;;;;;;5.80;5.20;;;;;;;;;;5095646;28;20195;-85
2022/04/14 10:34:04;;;;;;;6.90;5.87;;;;;;;;;;5095581;28;20224;-85
2022/04/14 10:36:33;;;;;;;4.87;3.40;;;;;;;;;;5095818;28;20285;-85
2022/04/14 10:39:01;;;;;;;4.70;3.40;;;;;;;;;;5095687;28;20237;-84
2022/04/14 10:41:30;;;;;;;9.00;6.63;;;;;;;;;;5095445;28;20289;-85
2022/04/14 10:44:01;;;;;;;8.23;6.03;;;;;;;;;;5095485;28;20253;-85
2022/04/14 10:46:41;;;;;;;10.43;7.50;;;;;;;;;;5095177;28;20205;-85
2022/04/14 10:49:13;;;;;;;11.83;8.37;;;;;;;;;;5095634;28;20187;-85
2022/04/14 10:51:40;;;;;;;14.70;8.77;;;;;;;;;;5095325;28;20693;-85
2022/04/14 10:54:09;;;;;;;8.30;6.43;;;;;;;;;;5095409;28;20194;-85
2022/04/14 10:56:53;;;;;;;11.10;6.23;;;;;;;;;;5095394;28;20263;-85
2022/04/14 10:59:22;;;;;;;8.73;6.40;;;;;;;;;;5095245;28;20649;-85
2022/04/14 11:02:06;;;;;;;11.53;6.50;;;;;;;;;;5095065;28;20196;-85
2022/04/14 11:04:35;;;;;;;4.27;3.87;;;;;;;;;;5094851;28;20203;-85
2022/04/14 11:07:09;;;;;;;6.10;3.53;;;;;;;;;;5094964;28;20192;-85
2022/04/14 11:09:48;;;;;;;4.53;4.00;;;;;;;;;;5094846;28;20190;-84
2022/04/14 11:12:17;;;;;;;6.67;5.20;;;;;;;;;;5095286;28;20286;-85
2022/04/14 11:14:49;;;;;;;8.40;6.20;;;;;;;;;;5094480;28;20289;-85
2022/04/14 11:17:54;;;;;;;35.17;26.03;;;;;;;;;;5094895;28;20273;-85
2022/04/14 11:20:23;;;;;;;102.67;57.23;;;;;;;;;;5094700;28;20191;-85
2022/04/14 11:23:03;;;;;;;4.47;3.60;;;;;;;;;;5094778;28;20679;-85
2022/04/14 11:25:47;;;;;;;7.17;4.23;;;;;;;;;;5094400;28;20594;-84
2022/04/14 11:28:19;;;;;;;3.70;3.40;;;;;;;;;;5094937;28;20196;-85
2022/04/14 11:30:47;;;;;;;3.93;3.37;;;;;;;;;;5094687;28;20284;-85
2022/04/14 11:33:16;;;;;;;6.30;3.63;;;;;;;;;;5094321;28;20204;-85
2022/04/14 11:35:47;;;;;;;4.37;3.90;;;;;;;;;;5094761;28;20275;-84
2022/04/14 11:38:47;;;;;;;3.73;3.40;;;;;;;;;;5094255;28;20242;-85
2022/04/14 11:41:37;;;;;;;5.17;4.50;;;;;;;;;;5089224;28;20704;-84
2022/04/14 11:44:05;;;;;;;6.90;3.57;;;;;;;;;;5094240;28;20211;-84
2022/04/14 11:46:33;;;;;;;3.10;2.80;;;;;;;;;;5094150;28;20220;-85
2022/04/14 11:49:02;;;;;;;4.10;3.70;;;;;;;;;;5093847;28;20287;-85
2022/04/14 11:51:29;;;;;;;8.20;5.63;;;;;;;;;;5094164;28;20218;-85
2022/04/14 11:53:57;;;;;;;4.27;3.70;;;;;;;;;;5094142;28;20207;-85
2022/04/14 11:56:25;;;;;;;9.03;5.97;;;;;;;;;;5094314;28;20706;-85
2022/04/14 11:58:53;;;;;;;4.80;4.30;;;;;;;;;;5093850;28;20258;-85
2022/04/14 12:01:20;;;;;;;5.63;4.43;;;;;;;;;;5094457;28;20584;-85
2022/04/14 12:03:48;;;;;;;6.13;4.07;;;;;;;;;;5093777;28;20742;-85
2022/04/14 12:06:18;;;;;;;6.10;3.43;;;;;;;;;;5093738;28;20231;-85
2022/04/14 12:08:56;;;;;;;6.33;4.20;;;;;;;;;;5093516;28;20274;-85
2022/04/14 12:11:24;;;;;;;4.77;3.80;;;;;;;;;;5093840;28;20192;-85
2022/04/14 12:13:52;;;;;;;8.10;4.53;;;;;;;;;;5093534;28;20200;-84
2022/04/14 12:16:19;;;;;;;9.30;4.07;;;;;;;;;;5093861;28;20286;-85
2022/04/14 12:18:52;;;;;;;6.77;4.40;;;;;;;;;;5093304;28;20287;-84
2022/04/14 12:21:23;;;;;;;4.70;3.50;;;;;;;;;;5093880;28;20250;-85
2022/04/14 12:23:52;;;;;;;6.07;4.23;;;;;;;;;;5092873;28;20239;-85
2022/04/14 12:26:20;;;;;;;6.43;4.73;;;;;;;;;;5093741;28;20224;-85
2022/04/14 12:28:51;;;;;;;11.43;6.43;;;;;;;;;;5093418;28;20643;-84
2022/04/14 12:31:18;;;;;;;6.90;5.83;;;;;;;;;;5093347;28;20767;-85
2022/04/14 12:33:58;;;;;;;8.10;6.47;;;;;;;;;;5093238;28;20206;-84
2022/04/14 12:36:37;;;;;;;7.27;5.73;;;;;;;;;;5093076;28;20227;-85
2022/04/14 12:39:06;;;;;;;5.70;4.53;;;;;;;;;;5093062;28;20238;-85
2022/04/14 12:41:37;;;;;;;6.43;4.17;;;;;;;;;;5093561;28;20197;-84
2022/04/14 12:44:06;;;;;;;6.43;4.93;;;;;;;;;;5092927;28;20426;-84
2022/04/14 12:46:38;;;;;;;5.43;4.07;;;;;;;;;;5093095;28;20641;-84
2022/04/14 12:49:08;;;;;;;5.47;4.57;;;;;;;;;;5092985;28;20269;-84
2022/04/14 12:51:38;;;;;;;6.43;4.80;;;;;;;;;;5093155;28;20211;-85
2022/04/14 12:54:06;;;;;;;8.53;6.57;;;;;;;;;;5092860;28;20724;-84
2022/04/14 12:56:34;;;;;;;4.93;4.03;;;;;;;;;;5092832;28;20196;-84
2022/04/14 12:59:15;;;;;;;8.53;5.03;;;;;;;;;;5092737;28;20203;-85
2022/04/14 13:01:47;;;;;;;8.77;5.20;;;;;;;;;;5092807;28;20200;-85
2022/04/14 13:04:14;;;;;;;14.40;9.50;;;;;;;;;;5092845;28;20206;-85
2022/04/14 13:06:57;;;;;;;3.63;2.90;;;;;;;;;;5092440;28;20224;-85
2022/04/14 13:09:24;;;;;;;14.07;10.53;;;;;;;;;;5092526;28;20195;-85
2022/04/14 13:11:51;;;;;;;6.97;5.30;;;;;;;;;;5093389;28;20236;-85
2022/04/14 13:14:20;;;;;;;10.93;7.37;;;;;;;;;;5092333;28;20287;-85
2022/04/14 13:16:48;;;;;;;5.23;4.00;;;;;;;;;;5092329;28;20234;-85
2022/04/14 13:19:15;;;;;;;4.83;4.23;;;;;;;;;;5092519;28;20207;-85
2022/04/14 13:21:45;;;;;;;3.43;2.83;;;;;;;;;;5092421;28;20199;-85
2022/04/14 13:24:12;;;;;;;18.03;12.90;;;;;;;;;;5092101;28;20201;-85
2022/04/14 13:26:39;;;;;;;9.67;7.30;;;;;;;;;;5092388;28;20314;-84
2022/04/14 13:29:07;;;;;;;10.03;7.10;;;;;;;;;;5092173;28;20204;-84
2022/04/14 13:31:35;;;;;;;13.47;10.47;;;;;;;;;;5092574;28;20737;-85
2022/04/14 13:34:03;;;;;;;7.80;6.27;;;;;;;;;;5091909;28;20294;-85
2022/04/14 13:36:30;;;;;;;12.77;11.57;;;;;;;;;;5091275;28;20318;-85
2022/04/14 13:38:59;;;;;;;5.70;5.20;;;;;;;;;;5092121;28;20199;-84
2022/04/14 13:41:26;;;;;;;7.73;7.03;;;;;;;;;;5092142;28;20205;-84
2022/04/14 13:43:53;;;;;;;5.30;4.80;;;;;;;;;;5092215;28;20203;-84
2022/04/14 13:46:20;;;;;;;8.33;7.47;;;;;;;;;;5091990;28;20219;-84
2022/04/14 13:48:48;;;;;;;11.03;7.37;;;;;;;;;;5091978;28;20196;-84
2022/04/14 13:51:15;;;;;;;5.77;5.20;;;;;;;;;;5092297;28;20210;-84
2022/04/14 13:53:42;;;;;;;7.40;6.53;;;;;;;;;;5092318;28;20209;-83
2022/04/14 13:56:11;;;;;;;61.30;42.17;;;;;;;;;;5092022;28;20196;-84
2022/04/14 13:58:39;;;;;;;7.63;6.87;;;;;;;;;;5092315;28;20196;-83
2022/04/14 14:01:08;;;;;;;3.30;3.00;;;;;;;;;;5092316;28;20593;-85
2022/04/14 14:03:35;;;;;;;4.13;2.97;;;;;;;;;;5091936;28;20201;-84
2022/04/14 14:06:03;;;;;;;3.13;2.87;;;;;;;;;;5091702;28;20219;-84
2022/04/14 14:08:30;;;;;;;2.50;2.30;;;;;;;;;;5092089;28;20725;-85
2022/04/14 14:10:58;;;;;;;3.00;2.63;;;;;;;;;;5091679;28;20199;-85
2022/04/14 14:13:27;;;;;;;4.83;3.13;;;;;;;;;;5091878;28;20202;-84
2022/04/14 14:15:54;;;;;;;4.33;3.50;;;;;;;;;;5091657;28;20199;-85
2022/04/14 14:18:21;;;;;;;7.13;6.17;;;;;;;;;;5091596;28;20664;-84
2022/04/14 14:20:48;;;;;;;4.60;4.20;;;;;;;;;;5091592;28;20212;-84
2022/04/14 14:23:16;;;;;;;3.03;2.73;;;;;;;;;;5091931;28;20196;-84
2022/04/14 14:25:44;;;;;;;4.50;3.10;;;;;;;;;;5090625;28;20207;-84
2022/04/14 14:28:11;;;;;;;3.83;3.53;;;;;;;;;;5091700;28;20200;-84
2022/04/14 14:30:41;;;;;;;7.50;4.53;;;;;;;;;;5091110;28;20211;-85
2022/04/14 14:33:08;;;;;;;8.27;5.17;;;;;;;;;;5092216;28;20561;-83
2022/04/14 14:35:36;;;;;;;13.13;8.70;;;;;;;;;;5091550;28;20203;-85
2022/04/14 14:38:05;;;;;;;6.03;5.00;;;;;;;;;;5091248;28;20241;-84
2022/04/14 14:40:32;;;;;;;10.83;9.10;;;;;;;;;;5091355;28;20199;-84
2022/04/14 14:42:59;;;;;;;20.53;14.90;;;;;;;;;;5091633;28;20213;-84
2022/04/14 14:45:27;;;;;;;20.50;14.67;;;;;;;;;;5091309;28;20662;-84
2022/04/14 14:47:56;;;;;;;5.17;3.40;;;;;;;;;;5093720;28;20734;-84
2022/04/14 14:50:23;;;;;;;12.33;8.53;;;;;;;;;;5094892;28;20294;-84